Airfield :







YOU CAN JOIN US ON...

 
LOGIN :

Register | Disclaimer

   EN    FR    IT 

 









Legend :    VFR   Marginal VFR   IFR   Intensive IFR   Very Intensive IFR
Visi :
Ceiling :
>= 8 km
>= 3000ft
5 to 8 km
1000 to 3000 ft
1500m to 5 km
500 to 1000 ft
800 to 1500m
200 to 500 ft
< 800m
< 200 ft
Symbols :   Thunderstorms  Fog  Heavy snow  Heavy precipitations  Wind > 20 kt







- Airport Elevation : 408 ft


KMLT - Millinocket Municipal

CURRENT METAR :
  • 210853Z AUTO 00000KT 10SM CLR 13/12 A3011 RMK AO2 SLP200 T01330122 53011

EXPIRED METARs :
  • 210753Z AUTO 29003KT 10SM CLR 15/13 A3009 RMK AO2 SLP191 T01500133 TSNO
  • 210653Z AUTO 33003KT 10SM CLR 17/13 A3008 RMK AO2 SLP190 T01670133

TAF N/A
No reported NOTAMs for that airfield.



MET'MAP, your aeronautical weather chart ! - Copyright ORBIFLY December 2007 - Disclaimer

ORBIFLY MET'MAP TEAM :

Programming & Development : Alexandra Zaïnal
Concept & Development : Baudouin d'Aumeries
Co-Development & Prog : Marc-Olivier Méhu
Technical & hardware support : Manuel Goepfert

Contact : metmap@orbifly.com




SOURCES & CREDITS :

   NOAA